sensor_id;sensor_type;location;lat;lon;timestamp;temperature;humidity
12967;DHT22;6548;49.996;8.238;2022-09-24T00:00:18;10.60;99.90
12967;DHT22;6548;49.996;8.238;2022-09-24T00:02:44;10.60;99.90
12967;DHT22;6548;49.996;8.238;2022-09-24T00:05:12;10.60;99.90
12967;DHT22;6548;49.996;8.238;2022-09-24T00:07:38;10.60;99.90
12967;DHT22;6548;49.996;8.238;2022-09-24T00:10:04;10.60;99.90
12967;DHT22;6548;49.996;8.238;2022-09-24T00:12:30;10.60;99.90
12967;DHT22;6548;49.996;8.238;2022-09-24T00:14:56;10.60;99.90
12967;DHT22;6548;49.996;8.238;2022-09-24T00:17:21;10.50;99.90
12967;DHT22;6548;49.996;8.238;2022-09-24T00:19:47;10.50;99.90
12967;DHT22;6548;49.996;8.238;2022-09-24T00:22:12;10.40;99.90
12967;DHT22;6548;49.996;8.238;2022-09-24T00:24:38;10.50;99.90
12967;DHT22;6548;49.996;8.238;2022-09-24T00:27:22;10.50;99.90
12967;DHT22;6548;49.996;8.238;2022-09-24T00:29:47;10.60;99.90
12967;DHT22;6548;49.996;8.238;2022-09-24T00:32:13;10.50;99.90
12967;DHT22;6548;49.996;8.238;2022-09-24T00:34:40;10.60;99.90
12967;DHT22;6548;49.996;8.238;2022-09-24T00:37:05;10.50;99.90
12967;DHT22;6548;49.996;8.238;2022-09-24T00:39:31;10.50;99.90
12967;DHT22;6548;49.996;8.238;2022-09-24T00:41:56;10.50;99.90
12967;DHT22;6548;49.996;8.238;2022-09-24T00:49:57;10.30;99.90
12967;DHT22;6548;49.996;8.238;2022-09-24T00:52:24;10.30;99.90
12967;DHT22;6548;49.996;8.238;2022-09-24T00:54:50;10.20;99.90
12967;DHT22;6548;49.996;8.238;2022-09-24T00:57:16;10.20;99.90
12967;DHT22;6548;49.996;8.238;2022-09-24T00:59:42;10.20;99.90
12967;DHT22;6548;49.996;8.238;2022-09-24T01:02:09;10.20;99.90
12967;DHT22;6548;49.996;8.238;2022-09-24T01:04:34;10.10;99.90
12967;DHT22;6548;49.996;8.238;2022-09-24T01:07:00;10.10;99.90
12967;DHT22;6548;49.996;8.238;2022-09-24T01:09:27;10.10;99.90
12967;DHT22;6548;49.996;8.238;2022-09-24T01:12:05;10.00;99.90
12967;DHT22;6548;49.996;8.238;2022-09-24T01:30:46;9.90;99.90
12967;DHT22;6548;49.996;8.238;2022-09-24T01:33:19;9.90;99.90
12967;DHT22;6548;49.996;8.238;2022-09-24T01:35:49;9.80;99.90
12967;DHT22;6548;49.996;8.238;2022-09-24T01:38:21;9.80;99.90
12967;DHT22;6548;49.996;8.238;2022-09-24T01:40:49;9.70;99.90
12967;DHT22;6548;49.996;8.238;2022-09-24T01:43:19;9.70;99.90
12967;DHT22;6548;49.996;8.238;2022-09-24T01:45:46;9.70;99.90
12967;DHT22;6548;49.996;8.238;2022-09-24T01:48:12;9.70;99.90
12967;DHT22;6548;49.996;8.238;2022-09-24T01:50:45;9.80;99.90
12967;DHT22;6548;49.996;8.238;2022-09-24T01:53:20;9.70;99.90
12967;DHT22;6548;49.996;8.238;2022-09-24T01:55:50;9.60;99.90
12967;DHT22;6548;49.996;8.238;2022-09-24T01:58:26;9.60;99.90
12967;DHT22;6548;49.996;8.238;2022-09-24T02:00:57;9.50;99.90
12967;DHT22;6548;49.996;8.238;2022-09-24T02:03:29;9.30;99.90
12967;DHT22;6548;49.996;8.238;2022-09-24T02:06:03;9.20;99.90
12967;DHT22;6548;49.996;8.238;2022-09-24T02:08:38;9.20;99.90
12967;DHT22;6548;49.996;8.238;2022-09-24T02:11:09;9.20;99.90
12967;DHT22;6548;49.996;8.238;2022-09-24T02:14:04;9.20;99.90
12967;DHT22;6548;49.996;8.238;2022-09-24T02:16:46;9.30;99.90
12967;DHT22;6548;49.996;8.238;2022-09-24T02:19:18;9.20;99.90
12967;DHT22;6548;49.996;8.238;2022-09-24T02:21:46;9.20;99.90
12967;DHT22;6548;49.996;8.238;2022-09-24T02:24:23;9.10;99.90
12967;DHT22;6548;49.996;8.238;2022-09-24T02:26:49;9.00;99.90
12967;DHT22;6548;49.996;8.238;2022-09-24T02:29:15;8.90;99.90
12967;DHT22;6548;49.996;8.238;2022-09-24T02:31:47;9.00;99.90
12967;DHT22;6548;49.996;8.238;2022-09-24T02:34:20;8.90;99.90
12967;DHT22;6548;49.996;8.238;2022-09-24T02:36:49;8.80;99.90
12967;DHT22;6548;49.996;8.238;2022-09-24T02:39:14;9.10;99.90
12967;DHT22;6548;49.996;8.238;2022-09-24T02:41:43;9.10;99.90
12967;DHT22;6548;49.996;8.238;2022-09-24T02:44:15;10.30;99.90
12967;DHT22;6548;49.996;8.238;2022-09-24T02:46:45;9.10;99.90
12967;DHT22;6548;49.996;8.238;2022-09-24T02:49:11;9.00;99.90
12967;DHT22;6548;49.996;8.238;2022-09-24T02:51:37;9.10;99.90
12967;DHT22;6548;49.996;8.238;2022-09-24T02:54:03;9.00;99.90
12967;DHT22;6548;49.996;8.238;2022-09-24T02:56:29;9.00;99.90
12967;DHT22;6548;49.996;8.238;2022-09-24T02:58:55;8.90;99.90
12967;DHT22;6548;49.996;8.238;2022-09-24T03:01:21;8.80;99.90
12967;DHT22;6548;49.996;8.238;2022-09-24T03:03:47;8.70;99.90
12967;DHT22;6548;49.996;8.238;2022-09-24T03:06:13;8.70;99.90
12967;DHT22;6548;49.996;8.238;2022-09-24T03:08:39;8.70;99.90
12967;DHT22;6548;49.996;8.238;2022-09-24T03:11:05;8.80;99.90
12967;DHT22;6548;49.996;8.238;2022-09-24T03:13:31;8.90;99.90
12967;DHT22;6548;49.996;8.238;2022-09-24T03:15:56;8.90;99.90
12967;DHT22;6548;49.996;8.238;2022-09-24T03:18:22;8.80;99.90
12967;DHT22;6548;49.996;8.238;2022-09-24T03:20:59;8.80;99.90
12967;DHT22;6548;49.996;8.238;2022-09-24T03:23:25;8.80;99.90
12967;DHT22;6548;49.996;8.238;2022-09-24T03:25:51;8.80;99.90
12967;DHT22;6548;49.996;8.238;2022-09-24T03:28:17;8.70;99.90
12967;DHT22;6548;49.996;8.238;2022-09-24T03:30:43;8.70;99.90
12967;DHT22;6548;49.996;8.238;2022-09-24T03:33:32;8.60;99.90
12967;DHT22;6548;49.996;8.238;2022-09-24T03:36:13;8.60;99.90
12967;DHT22;6548;49.996;8.238;2022-09-24T03:38:42;8.60;99.90
12967;DHT22;6548;49.996;8.238;2022-09-24T03:41:09;8.60;99.90
12967;DHT22;6548;49.996;8.238;2022-09-24T03:43:35;8.50;99.90
12967;DHT22;6548;49.996;8.238;2022-09-24T03:46:02;8.50;99.90
12967;DHT22;6548;49.996;8.238;2022-09-24T03:48:28;8.50;99.90
12967;DHT22;6548;49.996;8.238;2022-09-24T03:50:54;8.50;99.90
12967;DHT22;6548;49.996;8.238;2022-09-24T03:53:20;8.50;99.90
12967;DHT22;6548;49.996;8.238;2022-09-24T03:55:56;8.60;99.90
12967;DHT22;6548;49.996;8.238;2022-09-24T03:58:22;8.60;99.90
12967;DHT22;6548;49.996;8.238;2022-09-24T04:00:51;8.60;99.90
12967;DHT22;6548;49.996;8.238;2022-09-24T04:03:18;8.60;99.90
12967;DHT22;6548;49.996;8.238;2022-09-24T04:05:44;8.70;99.90
12967;DHT22;6548;49.996;8.238;2022-09-24T04:08:09;8.70;99.90
12967;DHT22;6548;49.996;8.238;2022-09-24T04:10:35;8.70;99.90
12967;DHT22;6548;49.996;8.238;2022-09-24T04:13:00;8.70;99.90
12967;DHT22;6548;49.996;8.238;2022-09-24T04:15:27;8.80;99.90
12967;DHT22;6548;49.996;8.238;2022-09-24T04:17:54;8.80;99.90
12967;DHT22;6548;49.996;8.238;2022-09-24T04:20:21;8.80;99.90
12967;DHT22;6548;49.996;8.238;2022-09-24T04:22:48;8.80;99.90
12967;DHT22;6548;49.996;8.238;2022-09-24T04:25:15;8.80;99.90
12967;DHT22;6548;49.996;8.238;2022-09-24T04:27:42;8.70;99.90
12967;DHT22;6548;49.996;8.238;2022-09-24T04:30:09;8.60;99.90
12967;DHT22;6548;49.996;8.238;2022-09-24T04:32:35;8.60;99.90
12967;DHT22;6548;49.996;8.238;2022-09-24T04:35:00;8.60;99.90
12967;DHT22;6548;49.996;8.238;2022-09-24T04:37:26;8.60;99.90
12967;DHT22;6548;49.996;8.238;2022-09-24T04:39:51;8.50;99.90
12967;DHT22;6548;49.996;8.238;2022-09-24T04:42:17;8.50;99.90
12967;DHT22;6548;49.996;8.238;2022-09-24T04:44:43;8.50;99.90
12967;DHT22;6548;49.996;8.238;2022-09-24T04:47:15;8.50;99.90
12967;DHT22;6548;49.996;8.238;2022-09-24T04:49:41;8.50;99.90
12967;DHT22;6548;49.996;8.238;2022-09-24T04:52:11;8.40;99.90
12967;DHT22;6548;49.996;8.238;2022-09-24T04:54:39;8.30;99.90
12967;DHT22;6548;49.996;8.238;2022-09-24T04:57:07;8.20;99.90
12967;DHT22;6548;49.996;8.238;2022-09-24T04:59:32;8.20;99.90
12967;DHT22;6548;49.996;8.238;2022-09-24T05:01:58;8.20;99.90
12967;DHT22;6548;49.996;8.238;2022-09-24T05:04:23;8.20;99.90
12967;DHT22;6548;49.996;8.238;2022-09-24T05:06:49;8.10;99.90
12967;DHT22;6548;49.996;8.238;2022-09-24T05:09:15;8.10;99.90
12967;DHT22;6548;49.996;8.238;2022-09-24T05:11:40;8.10;99.90
12967;DHT22;6548;49.996;8.238;2022-09-24T05:14:06;8.10;99.90
12967;DHT22;6548;49.996;8.238;2022-09-24T05:16:32;8.00;99.90
12967;DHT22;6548;49.996;8.238;2022-09-24T05:18:58;8.00;99.90
12967;DHT22;6548;49.996;8.238;2022-09-24T05:21:23;8.10;99.90
12967;DHT22;6548;49.996;8.238;2022-09-24T05:23:49;8.60;99.90
12967;DHT22;6548;49.996;8.238;2022-09-24T05:26:15;8.10;99.90
12967;DHT22;6548;49.996;8.238;2022-09-24T05:28:59;8.20;99.90
12967;DHT22;6548;49.996;8.238;2022-09-24T05:31:24;8.20;99.90
12967;DHT22;6548;49.996;8.238;2022-09-24T05:33:50;8.30;99.90
12967;DHT22;6548;49.996;8.238;2022-09-24T05:36:15;8.20;99.90
12967;DHT22;6548;49.996;8.238;2022-09-24T05:38:42;8.30;99.90
12967;DHT22;6548;49.996;8.238;2022-09-24T05:41:08;8.40;99.90
12967;DHT22;6548;49.996;8.238;2022-09-24T05:43:33;8.50;99.90
12967;DHT22;6548;49.996;8.238;2022-09-24T05:45:59;8.50;99.90
12967;DHT22;6548;49.996;8.238;2022-09-24T05:48:24;9.20;99.90
12967;DHT22;6548;49.996;8.238;2022-09-24T05:50:51;8.60;99.90
12967;DHT22;6548;49.996;8.238;2022-09-24T05:53:20;8.70;99.90
12967;DHT22;6548;49.996;8.238;2022-09-24T05:55:46;8.70;99.90
12967;DHT22;6548;49.996;8.238;2022-09-24T05:58:12;8.70;99.90
12967;DHT22;6548;49.996;8.238;2022-09-24T06:00:38;8.80;99.90
12967;DHT22;6548;49.996;8.238;2022-09-24T06:03:06;8.90;99.90
12967;DHT22;6548;49.996;8.238;2022-09-24T06:05:33;8.90;99.90
12967;DHT22;6548;49.996;8.238;2022-09-24T06:08:03;9.00;99.90
12967;DHT22;6548;49.996;8.238;2022-09-24T06:10:28;9.10;99.90
12967;DHT22;6548;49.996;8.238;2022-09-24T06:12:54;9.20;99.90
12967;DHT22;6548;49.996;8.238;2022-09-24T06:15:21;9.30;99.90
12967;DHT22;6548;49.996;8.238;2022-09-24T06:17:46;9.40;99.90
12967;DHT22;6548;49.996;8.238;2022-09-24T06:20:12;9.50;99.90
12967;DHT22;6548;49.996;8.238;2022-09-24T06:22:38;9.60;99.90
12967;DHT22;6548;49.996;8.238;2022-09-24T06:25:05;9.70;99.90
12967;DHT22;6548;49.996;8.238;2022-09-24T06:27:31;9.80;99.90
12967;DHT22;6548;49.996;8.238;2022-09-24T06:29:56;9.90;99.90
12967;DHT22;6548;49.996;8.238;2022-09-24T06:32:23;10.20;99.90
12967;DHT22;6548;49.996;8.238;2022-09-24T06:34:49;10.20;99.90
12967;DHT22;6548;49.996;8.238;2022-09-24T06:37:15;10.30;99.90
12967;DHT22;6548;49.996;8.238;2022-09-24T06:39:40;10.50;99.90
12967;DHT22;6548;49.996;8.238;2022-09-24T06:42:06;10.60;99.90
12967;DHT22;6548;49.996;8.238;2022-09-24T06:44:31;10.70;99.90
12967;DHT22;6548;49.996;8.238;2022-09-24T06:46:59;10.80;99.90
12967;DHT22;6548;49.996;8.238;2022-09-24T06:49:24;10.80;99.90
12967;DHT22;6548;49.996;8.238;2022-09-24T06:51:52;10.90;99.90
12967;DHT22;6548;49.996;8.238;2022-09-24T06:54:18;11.10;99.90
12967;DHT22;6548;49.996;8.238;2022-09-24T06:56:44;11.20;99.90
12967;DHT22;6548;49.996;8.238;2022-09-24T06:59:10;11.30;99.90
12967;DHT22;6548;49.996;8.238;2022-09-24T07:01:35;11.30;99.90
12967;DHT22;6548;49.996;8.238;2022-09-24T07:04:01;11.40;99.90
12967;DHT22;6548;49.996;8.238;2022-09-24T07:06:27;11.60;99.90
12967;DHT22;6548;49.996;8.238;2022-09-24T07:09:12;11.70;99.90
12967;DHT22;6548;49.996;8.238;2022-09-24T07:11:38;12.00;99.90
12967;DHT22;6548;49.996;8.238;2022-09-24T07:14:04;12.30;99.90
12967;DHT22;6548;49.996;8.238;2022-09-24T07:16:29;12.40;99.90
12967;DHT22;6548;49.996;8.238;2022-09-24T07:18:55;12.60;99.90
12967;DHT22;6548;49.996;8.238;2022-09-24T07:21:20;13.00;99.90
12967;DHT22;6548;49.996;8.238;2022-09-24T07:23:46;13.30;99.90
12967;DHT22;6548;49.996;8.238;2022-09-24T07:26:12;13.20;99.90
12967;DHT22;6548;49.996;8.238;2022-09-24T07:28:37;13.00;99.90
12967;DHT22;6548;49.996;8.238;2022-09-24T07:31:03;12.80;99.90
12967;DHT22;6548;49.996;8.238;2022-09-24T07:33:30;13.10;99.90
12967;DHT22;6548;49.996;8.238;2022-09-24T07:35:56;13.70;99.90
12967;DHT22;6548;49.996;8.238;2022-09-24T07:38:21;13.80;99.90
12967;DHT22;6548;49.996;8.238;2022-09-24T07:40:47;13.60;99.90
12967;DHT22;6548;49.996;8.238;2022-09-24T07:43:13;13.80;99.90
12967;DHT22;6548;49.996;8.238;2022-09-24T07:45:39;13.60;99.90
12967;DHT22;6548;49.996;8.238;2022-09-24T07:48:05;13.90;99.90
12967;DHT22;6548;49.996;8.238;2022-09-24T07:50:33;13.90;99.90
12967;DHT22;6548;49.996;8.238;2022-09-24T07:52:59;14.00;99.90
12967;DHT22;6548;49.996;8.238;2022-09-24T07:55:27;14.00;99.90
12967;DHT22;6548;49.996;8.238;2022-09-24T07:57:54;13.80;99.90
12967;DHT22;6548;49.996;8.238;2022-09-24T08:00:21;13.80;99.90
12967;DHT22;6548;49.996;8.238;2022-09-24T08:02:47;13.80;99.90
12967;DHT22;6548;49.996;8.238;2022-09-24T08:05:14;13.90;99.90
12967;DHT22;6548;49.996;8.238;2022-09-24T08:07:41;13.70;99.90
12967;DHT22;6548;49.996;8.238;2022-09-24T08:10:07;13.60;99.90
12967;DHT22;6548;49.996;8.238;2022-09-24T08:12:33;13.50;99.90
12967;DHT22;6548;49.996;8.238;2022-09-24T08:14:58;13.50;99.90
12967;DHT22;6548;49.996;8.238;2022-09-24T08:17:24;13.40;99.90
12967;DHT22;6548;49.996;8.238;2022-09-24T08:19:51;13.10;99.90
12967;DHT22;6548;49.996;8.238;2022-09-24T08:22:17;12.90;99.90
12967;DHT22;6548;49.996;8.238;2022-09-24T08:24:43;13.20;99.90
12967;DHT22;6548;49.996;8.238;2022-09-24T08:27:08;14.20;99.90
12967;DHT22;6548;49.996;8.238;2022-09-24T08:29:34;14.10;99.90
12967;DHT22;6548;49.996;8.238;2022-09-24T08:32:00;14.50;99.90
12967;DHT22;6548;49.996;8.238;2022-09-24T08:34:26;14.70;99.90
12967;DHT22;6548;49.996;8.238;2022-09-24T08:36:51;14.80;99.90
12967;DHT22;6548;49.996;8.238;2022-09-24T08:39:17;15.40;99.90
12967;DHT22;6548;49.996;8.238;2022-09-24T08:44:25;14.90;99.90
12967;DHT22;6548;49.996;8.238;2022-09-24T08:47:19;15.20;99.90
12967;DHT22;6548;49.996;8.238;2022-09-24T08:50:04;16.60;99.90
12967;DHT22;6548;49.996;8.238;2022-09-24T08:55:23;17.70;99.90
12967;DHT22;6548;49.996;8.238;2022-09-24T09:06:08;18.10;99.90
12967;DHT22;6548;49.996;8.238;2022-09-24T09:08:48;18.80;99.90
12967;DHT22;6548;49.996;8.238;2022-09-24T09:11:20;19.60;99.90
12967;DHT22;6548;49.996;8.238;2022-09-24T09:13:52;19.50;99.90
12967;DHT22;6548;49.996;8.238;2022-09-24T09:18:48;18.70;99.90
12967;DHT22;6548;49.996;8.238;2022-09-24T09:21:17;17.80;99.90
12967;DHT22;6548;49.996;8.238;2022-09-24T09:23:50;19.00;99.90
12967;DHT22;6548;49.996;8.238;2022-09-24T09:26:17;17.90;99.90
12967;DHT22;6548;49.996;8.238;2022-09-24T09:28:45;18.20;99.90
12967;DHT22;6548;49.996;8.238;2022-09-24T09:31:32;18.90;99.90
12967;DHT22;6548;49.996;8.238;2022-09-24T09:40:38;19.60;99.90
12967;DHT22;6548;49.996;8.238;2022-09-24T09:42:35;19.50;99.90
12967;DHT22;6548;49.996;8.238;2022-09-24T09:47:47;18.40;99.90
12967;DHT22;6548;49.996;8.238;2022-09-24T09:50:26;18.90;99.90
12967;DHT22;6548;49.996;8.238;2022-09-24T09:52:53;19.20;99.90
12967;DHT22;6548;49.996;8.238;2022-09-24T09:55:22;19.30;99.90
12967;DHT22;6548;49.996;8.238;2022-09-24T09:57:50;18.30;99.90
12967;DHT22;6548;49.996;8.238;2022-09-24T10:00:31;18.00;99.90
12967;DHT22;6548;49.996;8.238;2022-09-24T10:02:57;18.70;99.90
12967;DHT22;6548;49.996;8.238;2022-09-24T10:05:23;18.90;99.90
12967;DHT22;6548;49.996;8.238;2022-09-24T10:07:55;19.20;99.90
12967;DHT22;6548;49.996;8.238;2022-09-24T10:10:24;19.30;99.90
12967;DHT22;6548;49.996;8.238;2022-09-24T10:13:10;19.00;99.90
12967;DHT22;6548;49.996;8.238;2022-09-24T10:15:57;19.80;99.90
12967;DHT22;6548;49.996;8.238;2022-09-24T10:18:32;20.30;99.90
12967;DHT22;6548;49.996;8.238;2022-09-24T10:21:01;20.10;99.90
12967;DHT22;6548;49.996;8.238;2022-09-24T10:23:48;19.70;99.90
12967;DHT22;6548;49.996;8.238;2022-09-24T10:26:15;19.10;99.90
12967;DHT22;6548;49.996;8.238;2022-09-24T10:28:47;18.50;99.90
12967;DHT22;6548;49.996;8.238;2022-09-24T10:31:35;18.40;99.90
12967;DHT22;6548;49.996;8.238;2022-09-24T10:34:02;18.30;99.90
12967;DHT22;6548;49.996;8.238;2022-09-24T10:36:31;18.40;99.90
12967;DHT22;6548;49.996;8.238;2022-09-24T10:41:28;17.70;99.90
12967;DHT22;6548;49.996;8.238;2022-09-24T10:43:55;18.00;99.90
12967;DHT22;6548;49.996;8.238;2022-09-24T11:03:26;19.70;99.90
12967;DHT22;6548;49.996;8.238;2022-09-24T11:06:34;18.80;99.90
12967;DHT22;6548;49.996;8.238;2022-09-24T11:12:23;20.30;99.90
12967;DHT22;6548;49.996;8.238;2022-09-24T11:20:38;18.30;99.90
12967;DHT22;6548;49.996;8.238;2022-09-24T11:26:26;19.30;99.90
12967;DHT22;6548;49.996;8.238;2022-09-24T11:38:02;18.70;99.90
12967;DHT22;6548;49.996;8.238;2022-09-24T11:40:52;19.10;99.90
12967;DHT22;6548;49.996;8.238;2022-09-24T11:43:31;19.20;99.90
12967;DHT22;6548;49.996;8.238;2022-09-24T11:46:15;19.80;99.90
12967;DHT22;6548;49.996;8.238;2022-09-24T11:51:41;20.40;99.90
12967;DHT22;6548;49.996;8.238;2022-09-24T11:54:31;18.60;99.90
12967;DHT22;6548;49.996;8.238;2022-09-24T11:57:10;18.90;99.90
12967;DHT22;6548;49.996;8.238;2022-09-24T12:00:03;18.80;99.90
12967;DHT22;6548;49.996;8.238;2022-09-24T12:02:57;19.70;99.90
12967;DHT22;6548;49.996;8.238;2022-09-24T12:05:37;20.50;99.90
12967;DHT22;6548;49.996;8.238;2022-09-24T12:08:54;20.90;99.90
12967;DHT22;6548;49.996;8.238;2022-09-24T12:11:20;19.60;99.90
12967;DHT22;6548;49.996;8.238;2022-09-24T12:13:51;19.40;99.90
12967;DHT22;6548;49.996;8.238;2022-09-24T12:16:26;19.10;99.90
12967;DHT22;6548;49.996;8.238;2022-09-24T12:18:54;19.70;99.90
12967;DHT22;6548;49.996;8.238;2022-09-24T12:21:25;19.90;99.90
12967;DHT22;6548;49.996;8.238;2022-09-24T12:23:54;18.90;99.90
12967;DHT22;6548;49.996;8.238;2022-09-24T12:26:23;19.60;99.90
12967;DHT22;6548;49.996;8.238;2022-09-24T12:34:55;21.00;99.90
12967;DHT22;6548;49.996;8.238;2022-09-24T12:37:28;21.10;99.90
12967;DHT22;6548;49.996;8.238;2022-09-24T12:42:40;19.30;99.90
12967;DHT22;6548;49.996;8.238;2022-09-24T12:45:18;19.30;99.90
12967;DHT22;6548;49.996;8.238;2022-09-24T12:47:51;20.10;99.90
12967;DHT22;6548;49.996;8.238;2022-09-24T12:50:24;19.40;99.90
12967;DHT22;6548;49.996;8.238;2022-09-24T12:52:51;20.10;99.90
12967;DHT22;6548;49.996;8.238;2022-09-24T12:55:26;20.00;99.90
12967;DHT22;6548;49.996;8.238;2022-09-24T12:58:03;19.50;99.90
12967;DHT22;6548;49.996;8.238;2022-09-24T13:03:00;18.90;99.90
12967;DHT22;6548;49.996;8.238;2022-09-24T13:11:01;18.70;99.90
12967;DHT22;6548;49.996;8.238;2022-09-24T13:13:34;18.80;99.90
12967;DHT22;6548;49.996;8.238;2022-09-24T13:16:18;19.10;99.90
12967;DHT22;6548;49.996;8.238;2022-09-24T13:18:53;19.10;99.90
12967;DHT22;6548;49.996;8.238;2022-09-24T13:21:27;19.20;99.90
12967;DHT22;6548;49.996;8.238;2022-09-24T13:23:54;19.00;99.90
12967;DHT22;6548;49.996;8.238;2022-09-24T13:28:57;19.40;99.90
12967;DHT22;6548;49.996;8.238;2022-09-24T13:36:54;19.30;99.90
12967;DHT22;6548;49.996;8.238;2022-09-24T13:39:44;19.20;99.90
12967;DHT22;6548;49.996;8.238;2022-09-24T13:45:15;18.80;99.90
12967;DHT22;6548;49.996;8.238;2022-09-24T13:48:03;19.20;99.90
12967;DHT22;6548;49.996;8.238;2022-09-24T13:50:33;19.20;99.90
12967;DHT22;6548;49.996;8.238;2022-09-24T13:53:15;19.00;99.90
12967;DHT22;6548;49.996;8.238;2022-09-24T13:55:47;18.70;99.90
12967;DHT22;6548;49.996;8.238;2022-09-24T13:58:29;18.40;99.90
12967;DHT22;6548;49.996;8.238;2022-09-24T14:00:57;18.50;99.90
12967;DHT22;6548;49.996;8.238;2022-09-24T14:03:34;18.50;99.90
12967;DHT22;6548;49.996;8.238;2022-09-24T14:06:08;18.50;99.90
12967;DHT22;6548;49.996;8.238;2022-09-24T14:08:34;18.50;99.90
12967;DHT22;6548;49.996;8.238;2022-09-24T14:11:20;18.30;99.90
12967;DHT22;6548;49.996;8.238;2022-09-24T14:13:49;18.40;99.90
12967;DHT22;6548;49.996;8.238;2022-09-24T14:16:17;18.40;99.90
12967;DHT22;6548;49.996;8.238;2022-09-24T14:18:43;18.40;99.90
12967;DHT22;6548;49.996;8.238;2022-09-24T14:21:26;18.60;99.90
12967;DHT22;6548;49.996;8.238;2022-09-24T14:23:59;18.60;99.90
12967;DHT22;6548;49.996;8.238;2022-09-24T14:26:31;18.30;99.90
12967;DHT22;6548;49.996;8.238;2022-09-24T14:29:00;18.40;99.90
12967;DHT22;6548;49.996;8.238;2022-09-24T14:31:28;18.40;99.90
12967;DHT22;6548;49.996;8.238;2022-09-24T14:33:54;18.40;99.90
12967;DHT22;6548;49.996;8.238;2022-09-24T14:36:19;18.10;99.90
12967;DHT22;6548;49.996;8.238;2022-09-24T14:39:00;18.40;99.90
12967;DHT22;6548;49.996;8.238;2022-09-24T14:41:34;18.40;99.90
12967;DHT22;6548;49.996;8.238;2022-09-24T14:44:05;18.60;99.90
12967;DHT22;6548;49.996;8.238;2022-09-24T14:46:36;18.70;99.90
12967;DHT22;6548;49.996;8.238;2022-09-24T14:49:18;18.60;99.90
12967;DHT22;6548;49.996;8.238;2022-09-24T14:52:03;18.70;99.90
12967;DHT22;6548;49.996;8.238;2022-09-24T14:54:32;18.60;99.90
12967;DHT22;6548;49.996;8.238;2022-09-24T14:59:44;18.10;99.90
12967;DHT22;6548;49.996;8.238;2022-09-24T15:02:21;18.20;99.90
12967;DHT22;6548;49.996;8.238;2022-09-24T15:04:51;18.30;99.90
12967;DHT22;6548;49.996;8.238;2022-09-24T15:07:21;18.40;99.90
12967;DHT22;6548;49.996;8.238;2022-09-24T15:09:50;18.30;99.90
12967;DHT22;6548;49.996;8.238;2022-09-24T15:12:31;18.40;99.90
12967;DHT22;6548;49.996;8.238;2022-09-24T15:15:01;18.40;99.90
12967;DHT22;6548;49.996;8.238;2022-09-24T15:17:32;18.10;99.90
12967;DHT22;6548;49.996;8.238;2022-09-24T15:19:58;18.30;99.90
12967;DHT22;6548;49.996;8.238;2022-09-24T15:22:25;18.40;99.90
12967;DHT22;6548;49.996;8.238;2022-09-24T15:24:52;18.50;99.90
12967;DHT22;6548;49.996;8.238;2022-09-24T15:27:54;18.40;99.90
12967;DHT22;6548;49.996;8.238;2022-09-24T15:30:19;18.40;99.90
12967;DHT22;6548;49.996;8.238;2022-09-24T15:32:46;18.40;99.90
12967;DHT22;6548;49.996;8.238;2022-09-24T15:35:13;18.40;99.90
12967;DHT22;6548;49.996;8.238;2022-09-24T15:37:39;18.40;99.90
12967;DHT22;6548;49.996;8.238;2022-09-24T15:40:20;18.20;99.90
12967;DHT22;6548;49.996;8.238;2022-09-24T15:42:48;18.40;99.90
12967;DHT22;6548;49.996;8.238;2022-09-24T15:45:18;18.50;99.90
12967;DHT22;6548;49.996;8.238;2022-09-24T15:47:47;18.30;99.90
12967;DHT22;6548;49.996;8.238;2022-09-24T15:50:13;18.40;99.90
12967;DHT22;6548;49.996;8.238;2022-09-24T15:52:54;18.40;99.90
12967;DHT22;6548;49.996;8.238;2022-09-24T15:55:21;18.50;99.90
12967;DHT22;6548;49.996;8.238;2022-09-24T15:57:46;18.60;99.90
12967;DHT22;6548;49.996;8.238;2022-09-24T16:00:21;18.90;99.90
12967;DHT22;6548;49.996;8.238;2022-09-24T16:02:50;18.60;99.90
12967;DHT22;6548;49.996;8.238;2022-09-24T16:05:17;18.50;99.90
12967;DHT22;6548;49.996;8.238;2022-09-24T16:07:43;18.40;99.90
12967;DHT22;6548;49.996;8.238;2022-09-24T16:10:09;18.40;99.90
12967;DHT22;6548;49.996;8.238;2022-09-24T16:12:35;18.30;99.90
12967;DHT22;6548;49.996;8.238;2022-09-24T16:15:03;18.20;99.90
12967;DHT22;6548;49.996;8.238;2022-09-24T16:17:28;18.00;99.90
12967;DHT22;6548;49.996;8.238;2022-09-24T16:19:54;17.90;99.90
12967;DHT22;6548;49.996;8.238;2022-09-24T16:22:20;17.90;99.90
12967;DHT22;6548;49.996;8.238;2022-09-24T16:24:45;17.80;99.90
12967;DHT22;6548;49.996;8.238;2022-09-24T16:27:11;17.70;99.90
12967;DHT22;6548;49.996;8.238;2022-09-24T16:29:36;17.60;99.90
12967;DHT22;6548;49.996;8.238;2022-09-24T16:32:02;17.60;99.90
12967;DHT22;6548;49.996;8.238;2022-09-24T16:34:28;17.50;99.90
12967;DHT22;6548;49.996;8.238;2022-09-24T16:36:54;17.40;99.90
12967;DHT22;6548;49.996;8.238;2022-09-24T16:39:20;17.30;99.90
12967;DHT22;6548;49.996;8.238;2022-09-24T16:41:50;17.20;99.90
12967;DHT22;6548;49.996;8.238;2022-09-24T16:44:16;17.10;99.90
12967;DHT22;6548;49.996;8.238;2022-09-24T16:46:42;17.10;99.90
12967;DHT22;6548;49.996;8.238;2022-09-24T16:49:08;17.00;99.90
12967;DHT22;6548;49.996;8.238;2022-09-24T16:51:38;17.00;99.90
12967;DHT22;6548;49.996;8.238;2022-09-24T16:54:04;16.90;99.90
12967;DHT22;6548;49.996;8.238;2022-09-24T16:56:31;17.40;99.90
12967;DHT22;6548;49.996;8.238;2022-09-24T16:58:57;16.70;99.90
12967;DHT22;6548;49.996;8.238;2022-09-24T17:01:23;16.70;99.90
12967;DHT22;6548;49.996;8.238;2022-09-24T17:03:53;16.70;99.90
12967;DHT22;6548;49.996;8.238;2022-09-24T17:06:24;16.70;99.90
12967;DHT22;6548;49.996;8.238;2022-09-24T17:08:59;16.40;99.90
12967;DHT22;6548;49.996;8.238;2022-09-24T17:11:43;16.10;99.90
12967;DHT22;6548;49.996;8.238;2022-09-24T17:14:11;15.90;99.90
12967;DHT22;6548;49.996;8.238;2022-09-24T17:16:37;15.50;99.90
12967;DHT22;6548;49.996;8.238;2022-09-24T17:19:03;15.20;99.90
12967;DHT22;6548;49.996;8.238;2022-09-24T17:21:29;14.70;99.90
12967;DHT22;6548;49.996;8.238;2022-09-24T17:23:55;14.30;99.90
12967;DHT22;6548;49.996;8.238;2022-09-24T17:26:21;13.90;99.90
12967;DHT22;6548;49.996;8.238;2022-09-24T17:28:49;13.50;99.90
12967;DHT22;6548;49.996;8.238;2022-09-24T17:31:16;13.30;99.90
12967;DHT22;6548;49.996;8.238;2022-09-24T17:33:42;13.30;99.90
12967;DHT22;6548;49.996;8.238;2022-09-24T17:36:09;13.20;99.90
12967;DHT22;6548;49.996;8.238;2022-09-24T17:38:36;13.10;99.90
12967;DHT22;6548;49.996;8.238;2022-09-24T17:41:04;13.10;99.90
12967;DHT22;6548;49.996;8.238;2022-09-24T17:43:30;13.00;99.90
12967;DHT22;6548;49.996;8.238;2022-09-24T17:48:31;12.90;99.90
12967;DHT22;6548;49.996;8.238;2022-09-24T17:51:00;12.90;99.90
12967;DHT22;6548;49.996;8.238;2022-09-24T17:53:29;12.80;99.90
12967;DHT22;6548;49.996;8.238;2022-09-24T17:55:55;12.80;99.90
12967;DHT22;6548;49.996;8.238;2022-09-24T17:58:21;12.80;99.90
12967;DHT22;6548;49.996;8.238;2022-09-24T18:00:48;12.70;99.90
12967;DHT22;6548;49.996;8.238;2022-09-24T18:03:14;12.80;99.90
12967;DHT22;6548;49.996;8.238;2022-09-24T18:05:41;12.80;99.90
12967;DHT22;6548;49.996;8.238;2022-09-24T18:08:07;12.90;99.90